San Jose Del Cabo, Mexique

10:38 MDT le 25 août 2016 (GMT -0600)
El Zacatal | | Change Station

Alt. 128 ft 23.10 °N, 109.71 °W | Updated 17 seconds ago

Clear
Ciel dégagé
89.2 ° F
Paraît 99 ° F
N
4.0
Vent Variable Vent de ESE
Gusts 7.0 mph

Aujourd'hui
Haut(e) -- | Bas -- ° F
--% Risque de précip.
Hier
Haut(e) -- | Bas -- ° F
Precip. -- pouce
Pression 29.97 pouce
Visibilité 12.0 Miles terrestres
Nuages Ciel dégagé
indice de chaleur 99 ° F
Point de rosée 74 ° F
Humidité 62%
Précipitations 0.00 pouce
Profondeur de la couche neigeuse Non disponible.
6:58 AM 7:42 PM
Dernier quartier, 44% visible
METAR MMSD 251545Z 00000KT 12SM SKC 28/20 A2997
Pression 29.97 pouce
Visibilité 12.0 Miles terrestres
Nuages Ciel dégagé
indice de chaleur 99 ° F
Point de rosée 74 ° F
Humidité 62%
Précipitations 0.00 pouce
Profondeur de la couche neigeuse Non disponible.
6:58 AM 7:42 PM
Dernier quartier, 44% visible
METAR MMSD 251545Z 00000KT 12SM SKC 28/20 A2997

10-Day Weather Forecast

No radar image for this location.
×

Almanac

Astronomie

Aug. 25, 2016 Lever Coucher
Temps réel
Crépuscule civil
Crépuscule nautique
Crépuscule astronomique
Lune
Durée de lumière visible
Longueur du jour
Tomorrow will be .
, % of the Moon is Illuminated

Extrêmes aujourd'hui

Country Highs Country Lows

Community

WunderPhotos

Upload Photos

1,934,869 Photos téléchargées !

WunderBlog® & News

Nearby

Qualité de l'air

  Qualité de l'air Indice de la qualité de l'air Polluant
Not available.

Épaisseur de neige

Station Depth Altitude

Activité sismique

Ville Distance Mag. Time & Date
Minimum magnitude displayed is 2.5.

Températures des eaux côtières

Lieu Température

Stations

Stations météo à proximité

Emplacement de la station Température Refroidissement éolien Point de rosée Humidité Vent Precip. Alt. Mise à jour Type